sensor_id;sensor_type;location;lat;lon;timestamp;temperature;humidity
41256;DHT22;26989;45.524;10.938;2023-04-16T00:01:58;8.80;99.80
41256;DHT22;26989;45.524;10.938;2023-04-16T00:04:25;8.80;99.90
41256;DHT22;26989;45.524;10.938;2023-04-16T00:06:53;8.80;99.80
41256;DHT22;26989;45.524;10.938;2023-04-16T00:09:20;8.80;99.80
41256;DHT22;26989;45.524;10.938;2023-04-16T00:11:48;8.70;99.80
41256;DHT22;26989;45.524;10.938;2023-04-16T00:14:15;8.70;99.70
41256;DHT22;26989;45.524;10.938;2023-04-16T00:16:42;8.80;99.60
41256;DHT22;26989;45.524;10.938;2023-04-16T00:19:09;8.70;99.70
41256;DHT22;26989;45.524;10.938;2023-04-16T00:21:36;8.70;99.70
41256;DHT22;26989;45.524;10.938;2023-04-16T00:24:03;8.60;99.70
41256;DHT22;26989;45.524;10.938;2023-04-16T00:26:30;8.60;99.60
41256;DHT22;26989;45.524;10.938;2023-04-16T00:28:56;8.80;99.20
41256;DHT22;26989;45.524;10.938;2023-04-16T00:31:27;8.90;98.90
41256;DHT22;26989;45.524;10.938;2023-04-16T00:33:55;8.90;98.80
41256;DHT22;26989;45.524;10.938;2023-04-16T00:36:23;8.80;98.80
41256;DHT22;26989;45.524;10.938;2023-04-16T00:38:50;8.70;99.20
41256;DHT22;26989;45.524;10.938;2023-04-16T00:41:17;8.60;99.50
41256;DHT22;26989;45.524;10.938;2023-04-16T00:43:44;8.70;99.60
41256;DHT22;26989;45.524;10.938;2023-04-16T00:46:11;8.50;99.90
41256;DHT22;26989;45.524;10.938;2023-04-16T00:48:39;8.60;99.70
41256;DHT22;26989;45.524;10.938;2023-04-16T00:51:07;8.60;99.50
41256;DHT22;26989;45.524;10.938;2023-04-16T00:53:35;8.60;99.50
41256;DHT22;26989;45.524;10.938;2023-04-16T00:56:03;8.50;99.70
41256;DHT22;26989;45.524;10.938;2023-04-16T00:58:32;8.50;99.70
41256;DHT22;26989;45.524;10.938;2023-04-16T01:00:59;8.40;99.80
41256;DHT22;26989;45.524;10.938;2023-04-16T01:06:01;8.20;99.90
41256;DHT22;26989;45.524;10.938;2023-04-16T01:08:28;8.10;99.90
41256;DHT22;26989;45.524;10.938;2023-04-16T01:10:55;8.10;99.90
41256;DHT22;26989;45.524;10.938;2023-04-16T01:13:22;8.10;99.90
41256;DHT22;26989;45.524;10.938;2023-04-16T01:15:48;8.10;99.90
41256;DHT22;26989;45.524;10.938;2023-04-16T01:18:17;8.00;99.90
41256;DHT22;26989;45.524;10.938;2023-04-16T01:20:45;8.00;99.90
41256;DHT22;26989;45.524;10.938;2023-04-16T01:23:12;7.90;99.90
41256;DHT22;26989;45.524;10.938;2023-04-16T01:25:39;7.90;99.90
41256;DHT22;26989;45.524;10.938;2023-04-16T01:28:06;7.80;99.90
41256;DHT22;26989;45.524;10.938;2023-04-16T01:30:33;7.80;99.90
41256;DHT22;26989;45.524;10.938;2023-04-16T01:33:00;7.70;99.90
41256;DHT22;26989;45.524;10.938;2023-04-16T01:35:27;7.60;99.90
41256;DHT22;26989;45.524;10.938;2023-04-16T01:37:54;7.50;99.90
41256;DHT22;26989;45.524;10.938;2023-04-16T01:40:21;7.30;99.90
41256;DHT22;26989;45.524;10.938;2023-04-16T01:42:47;7.40;99.90
41256;DHT22;26989;45.524;10.938;2023-04-16T01:45:14;7.60;99.90
41256;DHT22;26989;45.524;10.938;2023-04-16T01:47:41;7.40;99.90
41256;DHT22;26989;45.524;10.938;2023-04-16T01:50:09;7.30;99.90
41256;DHT22;26989;45.524;10.938;2023-04-16T01:52:35;7.20;99.90
41256;DHT22;26989;45.524;10.938;2023-04-16T01:55:02;7.20;99.90
41256;DHT22;26989;45.524;10.938;2023-04-16T01:57:29;7.40;99.90
41256;DHT22;26989;45.524;10.938;2023-04-16T01:59:56;7.40;99.90
41256;DHT22;26989;45.524;10.938;2023-04-16T02:02:23;7.30;99.90
41256;DHT22;26989;45.524;10.938;2023-04-16T02:04:55;7.40;99.90
41256;DHT22;26989;45.524;10.938;2023-04-16T02:07:23;7.30;99.90
41256;DHT22;26989;45.524;10.938;2023-04-16T02:09:51;7.10;99.90
41256;DHT22;26989;45.524;10.938;2023-04-16T02:12:17;7.10;99.90
41256;DHT22;26989;45.524;10.938;2023-04-16T02:14:45;7.20;99.90
41256;DHT22;26989;45.524;10.938;2023-04-16T02:17:11;7.10;99.90
41256;DHT22;26989;45.524;10.938;2023-04-16T02:19:38;7.00;99.90
41256;DHT22;26989;45.524;10.938;2023-04-16T02:22:05;6.90;99.90
41256;DHT22;26989;45.524;10.938;2023-04-16T02:24:32;6.80;99.90
41256;DHT22;26989;45.524;10.938;2023-04-16T02:26:59;6.80;99.90
41256;DHT22;26989;45.524;10.938;2023-04-16T02:29:27;6.60;99.90
41256;DHT22;26989;45.524;10.938;2023-04-16T02:31:54;6.70;99.90
41256;DHT22;26989;45.524;10.938;2023-04-16T02:34:20;6.60;99.90
41256;DHT22;26989;45.524;10.938;2023-04-16T02:36:47;6.60;99.90
41256;DHT22;26989;45.524;10.938;2023-04-16T02:39:14;6.50;99.90
41256;DHT22;26989;45.524;10.938;2023-04-16T02:41:41;6.40;99.90
41256;DHT22;26989;45.524;10.938;2023-04-16T02:44:08;6.40;99.90
41256;DHT22;26989;45.524;10.938;2023-04-16T02:46:35;6.40;99.90
41256;DHT22;26989;45.524;10.938;2023-04-16T02:49:01;6.50;99.90
41256;DHT22;26989;45.524;10.938;2023-04-16T02:51:28;6.60;99.90
41256;DHT22;26989;45.524;10.938;2023-04-16T02:53:55;6.60;99.90
41256;DHT22;26989;45.524;10.938;2023-04-16T02:56:22;6.50;99.90
41256;DHT22;26989;45.524;10.938;2023-04-16T02:58:48;6.30;99.90
41256;DHT22;26989;45.524;10.938;2023-04-16T03:01:15;6.30;99.90
41256;DHT22;26989;45.524;10.938;2023-04-16T03:03:43;6.40;99.90
41256;DHT22;26989;45.524;10.938;2023-04-16T03:06:10;6.50;99.90
41256;DHT22;26989;45.524;10.938;2023-04-16T03:08:37;6.40;99.90
41256;DHT22;26989;45.524;10.938;2023-04-16T03:11:04;6.30;99.90
41256;DHT22;26989;45.524;10.938;2023-04-16T03:13:30;6.20;99.90
41256;DHT22;26989;45.524;10.938;2023-04-16T03:15:57;6.30;99.90
41256;DHT22;26989;45.524;10.938;2023-04-16T03:18:24;6.30;99.90
41256;DHT22;26989;45.524;10.938;2023-04-16T03:20:51;6.30;99.90
41256;DHT22;26989;45.524;10.938;2023-04-16T03:23:19;6.30;99.90
41256;DHT22;26989;45.524;10.938;2023-04-16T03:25:45;6.40;99.90
41256;DHT22;26989;45.524;10.938;2023-04-16T03:28:13;6.40;99.90
41256;DHT22;26989;45.524;10.938;2023-04-16T03:30:40;6.40;99.90
41256;DHT22;26989;45.524;10.938;2023-04-16T03:33:07;6.60;99.90
41256;DHT22;26989;45.524;10.938;2023-04-16T03:35:34;6.90;99.90
41256;DHT22;26989;45.524;10.938;2023-04-16T03:38:00;6.80;99.90
41256;DHT22;26989;45.524;10.938;2023-04-16T03:40:27;6.60;99.90
41256;DHT22;26989;45.524;10.938;2023-04-16T03:42:54;6.60;99.90
41256;DHT22;26989;45.524;10.938;2023-04-16T03:45:21;6.60;99.90
41256;DHT22;26989;45.524;10.938;2023-04-16T03:47:48;6.50;99.90
41256;DHT22;26989;45.524;10.938;2023-04-16T03:50:18;6.40;99.90
41256;DHT22;26989;45.524;10.938;2023-04-16T03:52:45;6.50;99.90
41256;DHT22;26989;45.524;10.938;2023-04-16T03:55:14;6.20;99.90
41256;DHT22;26989;45.524;10.938;2023-04-16T03:57:41;5.90;99.90
41256;DHT22;26989;45.524;10.938;2023-04-16T04:00:08;5.80;99.90
41256;DHT22;26989;45.524;10.938;2023-04-16T04:02:35;5.80;99.90
41256;DHT22;26989;45.524;10.938;2023-04-16T04:05:02;6.00;99.90
41256;DHT22;26989;45.524;10.938;2023-04-16T04:07:29;6.20;99.90
41256;DHT22;26989;45.524;10.938;2023-04-16T04:09:56;6.10;99.90
41256;DHT22;26989;45.524;10.938;2023-04-16T04:12:23;5.70;99.90
41256;DHT22;26989;45.524;10.938;2023-04-16T04:14:49;5.80;99.90
41256;DHT22;26989;45.524;10.938;2023-04-16T04:17:16;5.80;99.90
41256;DHT22;26989;45.524;10.938;2023-04-16T04:19:43;5.80;99.90
41256;DHT22;26989;45.524;10.938;2023-04-16T04:22:26;5.80;99.90
41256;DHT22;26989;45.524;10.938;2023-04-16T04:24:53;5.90;99.90
41256;DHT22;26989;45.524;10.938;2023-04-16T04:27:19;6.00;99.90
41256;DHT22;26989;45.524;10.938;2023-04-16T04:29:46;6.10;99.90
41256;DHT22;26989;45.524;10.938;2023-04-16T04:32:13;6.00;99.90
41256;DHT22;26989;45.524;10.938;2023-04-16T04:34:40;6.00;99.90
41256;DHT22;26989;45.524;10.938;2023-04-16T04:37:06;6.10;99.90
41256;DHT22;26989;45.524;10.938;2023-04-16T04:39:33;6.00;99.90
41256;DHT22;26989;45.524;10.938;2023-04-16T04:42:00;6.00;99.90
41256;DHT22;26989;45.524;10.938;2023-04-16T04:44:28;6.00;99.90
41256;DHT22;26989;45.524;10.938;2023-04-16T04:46:55;6.00;99.90
41256;DHT22;26989;45.524;10.938;2023-04-16T04:49:22;6.10;99.90
41256;DHT22;26989;45.524;10.938;2023-04-16T04:51:49;6.00;99.90
41256;DHT22;26989;45.524;10.938;2023-04-16T04:54:16;6.10;99.90
41256;DHT22;26989;45.524;10.938;2023-04-16T04:56:42;6.20;99.90
41256;DHT22;26989;45.524;10.938;2023-04-16T04:59:12;6.20;99.90
41256;DHT22;26989;45.524;10.938;2023-04-16T05:01:39;6.10;99.90
41256;DHT22;26989;45.524;10.938;2023-04-16T05:04:06;6.10;99.90
41256;DHT22;26989;45.524;10.938;2023-04-16T05:06:33;6.20;99.90
41256;DHT22;26989;45.524;10.938;2023-04-16T05:09:00;6.30;99.90
41256;DHT22;26989;45.524;10.938;2023-04-16T05:11:28;6.30;99.90
41256;DHT22;26989;45.524;10.938;2023-04-16T05:13:55;6.30;99.90
41256;DHT22;26989;45.524;10.938;2023-04-16T05:16:22;6.30;99.90
41256;DHT22;26989;45.524;10.938;2023-04-16T05:18:49;6.40;99.90
41256;DHT22;26989;45.524;10.938;2023-04-16T05:21:15;6.40;99.90
41256;DHT22;26989;45.524;10.938;2023-04-16T05:23:42;6.50;99.90
41256;DHT22;26989;45.524;10.938;2023-04-16T05:26:09;6.50;99.90
41256;DHT22;26989;45.524;10.938;2023-04-16T05:28:36;7.30;99.90
41256;DHT22;26989;45.524;10.938;2023-04-16T05:31:03;11.10;98.40
41256;DHT22;26989;45.524;10.938;2023-04-16T05:33:30;12.20;95.90
41256;DHT22;26989;45.524;10.938;2023-04-16T05:35:57;13.30;94.90
41256;DHT22;26989;45.524;10.938;2023-04-16T05:38:24;13.10;94.70
41256;DHT22;26989;45.524;10.938;2023-04-16T05:40:51;13.30;94.90
41256;DHT22;26989;45.524;10.938;2023-04-16T05:43:18;15.00;94.00
41256;DHT22;26989;45.524;10.938;2023-04-16T05:45:45;13.30;94.20
41256;DHT22;26989;45.524;10.938;2023-04-16T05:48:11;12.40;94.40
41256;DHT22;26989;45.524;10.938;2023-04-16T05:50:39;13.20;94.40
41256;DHT22;26989;45.524;10.938;2023-04-16T05:53:07;13.10;94.10
41256;DHT22;26989;45.524;10.938;2023-04-16T05:55:34;14.40;94.10
41256;DHT22;26989;45.524;10.938;2023-04-16T05:58:04;15.30;93.40
41256;DHT22;26989;45.524;10.938;2023-04-16T06:00:34;16.70;91.70
41256;DHT22;26989;45.524;10.938;2023-04-16T06:03:01;17.30;91.10
41256;DHT22;26989;45.524;10.938;2023-04-16T06:05:28;15.20;92.40
41256;DHT22;26989;45.524;10.938;2023-04-16T06:07:55;14.10;93.60
41256;DHT22;26989;45.524;10.938;2023-04-16T06:10:23;13.20;94.50
41256;DHT22;26989;45.524;10.938;2023-04-16T06:12:50;12.00;95.90
41256;DHT22;26989;45.524;10.938;2023-04-16T06:15:17;10.60;97.60
41256;DHT22;26989;45.524;10.938;2023-04-16T06:17:44;10.40;98.40
41256;DHT22;26989;45.524;10.938;2023-04-16T06:20:11;10.10;99.90
41256;DHT22;26989;45.524;10.938;2023-04-16T06:22:38;10.00;99.90
41256;DHT22;26989;45.524;10.938;2023-04-16T06:25:05;10.30;99.90
41256;DHT22;26989;45.524;10.938;2023-04-16T06:27:32;10.50;99.70
41256;DHT22;26989;45.524;10.938;2023-04-16T06:29:59;10.20;99.90
41256;DHT22;26989;45.524;10.938;2023-04-16T06:32:26;10.00;99.90
41256;DHT22;26989;45.524;10.938;2023-04-16T06:34:53;10.20;99.90
41256;DHT22;26989;45.524;10.938;2023-04-16T06:37:20;11.20;99.90
41256;DHT22;26989;45.524;10.938;2023-04-16T06:39:47;12.10;98.80
41256;DHT22;26989;45.524;10.938;2023-04-16T06:42:14;11.80;98.40
41256;DHT22;26989;45.524;10.938;2023-04-16T06:44:41;11.80;99.00
41256;DHT22;26989;45.524;10.938;2023-04-16T06:47:08;11.30;99.30
41256;DHT22;26989;45.524;10.938;2023-04-16T06:49:35;11.30;98.40
41256;DHT22;26989;45.524;10.938;2023-04-16T06:52:05;11.60;98.60
41256;DHT22;26989;45.524;10.938;2023-04-16T06:54:32;11.50;98.80
41256;DHT22;26989;45.524;10.938;2023-04-16T06:56:59;11.50;97.90
41256;DHT22;26989;45.524;10.938;2023-04-16T06:59:26;12.10;97.00
41256;DHT22;26989;45.524;10.938;2023-04-16T07:01:53;12.20;96.90
41256;DHT22;26989;45.524;10.938;2023-04-16T07:04:22;12.40;96.60
41256;DHT22;26989;45.524;10.938;2023-04-16T07:06:49;12.70;96.90
41256;DHT22;26989;45.524;10.938;2023-04-16T07:09:15;12.90;97.30
41256;DHT22;26989;45.524;10.938;2023-04-16T07:11:43;13.10;97.50
41256;DHT22;26989;45.524;10.938;2023-04-16T07:14:11;13.00;97.30
41256;DHT22;26989;45.524;10.938;2023-04-16T07:16:37;13.00;97.00
41256;DHT22;26989;45.524;10.938;2023-04-16T07:19:04;13.10;97.10
41256;DHT22;26989;45.524;10.938;2023-04-16T07:21:32;13.30;96.20
41256;DHT22;26989;45.524;10.938;2023-04-16T07:23:58;13.30;96.30
41256;DHT22;26989;45.524;10.938;2023-04-16T07:26:26;13.30;95.80
41256;DHT22;26989;45.524;10.938;2023-04-16T07:28:53;13.40;96.10
41256;DHT22;26989;45.524;10.938;2023-04-16T07:31:20;13.40;96.20
41256;DHT22;26989;45.524;10.938;2023-04-16T07:33:47;13.30;96.20
41256;DHT22;26989;45.524;10.938;2023-04-16T07:36:14;13.30;96.70
41256;DHT22;26989;45.524;10.938;2023-04-16T07:38:40;13.50;96.10
41256;DHT22;26989;45.524;10.938;2023-04-16T07:41:07;13.70;95.80
41256;DHT22;26989;45.524;10.938;2023-04-16T07:43:34;14.00;96.10
41256;DHT22;26989;45.524;10.938;2023-04-16T07:46:01;14.20;95.50
41256;DHT22;26989;45.524;10.938;2023-04-16T07:48:28;14.40;96.10
41256;DHT22;26989;45.524;10.938;2023-04-16T07:50:55;14.50;96.10
41256;DHT22;26989;45.524;10.938;2023-04-16T07:53:22;14.80;95.70
41256;DHT22;26989;45.524;10.938;2023-04-16T07:55:49;14.70;95.50
41256;DHT22;26989;45.524;10.938;2023-04-16T07:58:16;14.60;95.70
41256;DHT22;26989;45.524;10.938;2023-04-16T08:00:43;14.70;96.50
41256;DHT22;26989;45.524;10.938;2023-04-16T08:03:11;14.80;96.50
41256;DHT22;26989;45.524;10.938;2023-04-16T08:05:38;15.00;96.20
41256;DHT22;26989;45.524;10.938;2023-04-16T08:08:05;15.10;96.40
41256;DHT22;26989;45.524;10.938;2023-04-16T08:10:32;15.30;95.80
41256;DHT22;26989;45.524;10.938;2023-04-16T08:13:00;15.30;95.80
41256;DHT22;26989;45.524;10.938;2023-04-16T08:15:27;15.20;96.10
41256;DHT22;26989;45.524;10.938;2023-04-16T08:17:54;15.40;96.00
41256;DHT22;26989;45.524;10.938;2023-04-16T08:20:21;15.20;95.90
41256;DHT22;26989;45.524;10.938;2023-04-16T08:22:48;15.30;96.60
41256;DHT22;26989;45.524;10.938;2023-04-16T08:25:15;15.30;96.50
41256;DHT22;26989;45.524;10.938;2023-04-16T08:27:42;15.10;96.70
41256;DHT22;26989;45.524;10.938;2023-04-16T08:30:09;15.20;97.10
41256;DHT22;26989;45.524;10.938;2023-04-16T08:32:35;15.20;97.40
41256;DHT22;26989;45.524;10.938;2023-04-16T08:35:02;15.20;96.90
41256;DHT22;26989;45.524;10.938;2023-04-16T08:37:29;15.40;96.60
41256;DHT22;26989;45.524;10.938;2023-04-16T08:39:56;15.40;97.00
41256;DHT22;26989;45.524;10.938;2023-04-16T08:42:30;15.50;97.00
41256;DHT22;26989;45.524;10.938;2023-04-16T08:45:15;15.70;96.90
41256;DHT22;26989;45.524;10.938;2023-04-16T08:47:50;15.60;96.50
41256;DHT22;26989;45.524;10.938;2023-04-16T08:50:22;15.60;96.30
41256;DHT22;26989;45.524;10.938;2023-04-16T08:53:02;15.50;96.30
41256;DHT22;26989;45.524;10.938;2023-04-16T08:55:36;15.70;96.20
41256;DHT22;26989;45.524;10.938;2023-04-16T08:58:22;15.90;96.00
41256;DHT22;26989;45.524;10.938;2023-04-16T09:00:49;16.00;95.60
41256;DHT22;26989;45.524;10.938;2023-04-16T09:03:16;16.00;95.20
41256;DHT22;26989;45.524;10.938;2023-04-16T09:05:48;16.00;93.80
41256;DHT22;26989;45.524;10.938;2023-04-16T09:08:16;16.10;94.10
41256;DHT22;26989;45.524;10.938;2023-04-16T09:10:43;16.20;93.80
41256;DHT22;26989;45.524;10.938;2023-04-16T09:13:12;16.40;92.80
41256;DHT22;26989;45.524;10.938;2023-04-16T09:15:42;16.40;92.60
41256;DHT22;26989;45.524;10.938;2023-04-16T09:18:09;16.30;92.70
41256;DHT22;26989;45.524;10.938;2023-04-16T09:20:38;16.30;92.50
41256;DHT22;26989;45.524;10.938;2023-04-16T09:23:08;16.30;92.30
41256;DHT22;26989;45.524;10.938;2023-04-16T09:25:36;16.70;92.10
41256;DHT22;26989;45.524;10.938;2023-04-16T09:28:04;16.50;91.40
41256;DHT22;26989;45.524;10.938;2023-04-16T09:30:31;16.60;91.90
41256;DHT22;26989;45.524;10.938;2023-04-16T09:33:15;16.50;91.50
41256;DHT22;26989;45.524;10.938;2023-04-16T09:35:48;16.60;91.60
41256;DHT22;26989;45.524;10.938;2023-04-16T09:38:15;16.70;91.20
41256;DHT22;26989;45.524;10.938;2023-04-16T09:40:42;16.70;91.50
41256;DHT22;26989;45.524;10.938;2023-04-16T09:43:13;16.90;91.50
41256;DHT22;26989;45.524;10.938;2023-04-16T09:45:54;16.80;92.00
41256;DHT22;26989;45.524;10.938;2023-04-16T09:48:31;16.90;91.80
41256;DHT22;26989;45.524;10.938;2023-04-16T09:50:59;16.90;91.60
41256;DHT22;26989;45.524;10.938;2023-04-16T09:53:30;17.00;91.90
41256;DHT22;26989;45.524;10.938;2023-04-16T09:55:59;17.00;92.00
41256;DHT22;26989;45.524;10.938;2023-04-16T09:58:27;16.80;91.90
41256;DHT22;26989;45.524;10.938;2023-04-16T10:01:01;16.90;91.30
41256;DHT22;26989;45.524;10.938;2023-04-16T10:03:32;16.90;91.70
41256;DHT22;26989;45.524;10.938;2023-04-16T10:06:20;16.80;91.10
41256;DHT22;26989;45.524;10.938;2023-04-16T10:08:52;16.70;90.90
41256;DHT22;26989;45.524;10.938;2023-04-16T10:11:20;16.50;90.90
41256;DHT22;26989;45.524;10.938;2023-04-16T10:13:47;16.70;91.30
41256;DHT22;26989;45.524;10.938;2023-04-16T10:16:14;16.70;91.60
41256;DHT22;26989;45.524;10.938;2023-04-16T10:18:43;16.70;91.00
41256;DHT22;26989;45.524;10.938;2023-04-16T10:21:10;16.70;91.10
41256;DHT22;26989;45.524;10.938;2023-04-16T10:23:39;16.60;90.80
41256;DHT22;26989;45.524;10.938;2023-04-16T10:26:05;16.70;90.60
41256;DHT22;26989;45.524;10.938;2023-04-16T10:28:33;16.50;90.90
41256;DHT22;26989;45.524;10.938;2023-04-16T10:31:05;16.70;91.10
41256;DHT22;26989;45.524;10.938;2023-04-16T10:33:35;16.80;91.10
41256;DHT22;26989;45.524;10.938;2023-04-16T10:36:14;16.90;90.10
41256;DHT22;26989;45.524;10.938;2023-04-16T10:38:46;16.80;90.20
41256;DHT22;26989;45.524;10.938;2023-04-16T10:41:15;16.90;90.40
41256;DHT22;26989;45.524;10.938;2023-04-16T10:43:44;17.00;90.30
41256;DHT22;26989;45.524;10.938;2023-04-16T10:48:49;17.00;90.40
41256;DHT22;26989;45.524;10.938;2023-04-16T10:51:27;16.90;89.70
41256;DHT22;26989;45.524;10.938;2023-04-16T10:53:55;17.00;90.00
41256;DHT22;26989;45.524;10.938;2023-04-16T10:56:24;17.20;89.90
41256;DHT22;26989;45.524;10.938;2023-04-16T10:58:53;17.20;89.50
41256;DHT22;26989;45.524;10.938;2023-04-16T11:01:34;17.40;90.30
41256;DHT22;26989;45.524;10.938;2023-04-16T11:04:25;17.60;90.00
41256;DHT22;26989;45.524;10.938;2023-04-16T11:07:16;17.30;89.90
41256;DHT22;26989;45.524;10.938;2023-04-16T11:10:00;17.30;90.20
41256;DHT22;26989;45.524;10.938;2023-04-16T11:15:07;17.20;89.80
41256;DHT22;26989;45.524;10.938;2023-04-16T11:20:19;17.30;90.40
41256;DHT22;26989;45.524;10.938;2023-04-16T11:22:48;17.10;89.60
41256;DHT22;26989;45.524;10.938;2023-04-16T11:25:26;17.10;90.10
41256;DHT22;26989;45.524;10.938;2023-04-16T11:27:53;17.40;90.40
41256;DHT22;26989;45.524;10.938;2023-04-16T11:30:40;17.60;90.50
41256;DHT22;26989;45.524;10.938;2023-04-16T11:33:09;17.60;90.00
41256;DHT22;26989;45.524;10.938;2023-04-16T11:35:37;17.40;90.10
41256;DHT22;26989;45.524;10.938;2023-04-16T11:38:05;17.40;90.10
41256;DHT22;26989;45.524;10.938;2023-04-16T11:40:33;17.50;89.50
41256;DHT22;26989;45.524;10.938;2023-04-16T11:43:12;17.30;89.90
41256;DHT22;26989;45.524;10.938;2023-04-16T11:48:22;17.00;90.10
41256;DHT22;26989;45.524;10.938;2023-04-16T11:50:56;17.00;89.20
41256;DHT22;26989;45.524;10.938;2023-04-16T11:53:24;17.00;90.00
41256;DHT22;26989;45.524;10.938;2023-04-16T11:55:51;17.20;89.90
41256;DHT22;26989;45.524;10.938;2023-04-16T11:58:18;17.30;88.90
41256;DHT22;26989;45.524;10.938;2023-04-16T12:00:48;17.50;88.40
41256;DHT22;26989;45.524;10.938;2023-04-16T12:03:40;17.60;87.60
41256;DHT22;26989;45.524;10.938;2023-04-16T12:06:10;17.50;88.00
41256;DHT22;26989;45.524;10.938;2023-04-16T12:08:37;17.70;87.30
41256;DHT22;26989;45.524;10.938;2023-04-16T12:11:04;17.50;87.10
41256;DHT22;26989;45.524;10.938;2023-04-16T12:13:31;17.00;87.20
41256;DHT22;26989;45.524;10.938;2023-04-16T12:16:17;17.10;88.70
41256;DHT22;26989;45.524;10.938;2023-04-16T12:19:02;17.40;89.90
41256;DHT22;26989;45.524;10.938;2023-04-16T12:21:42;17.60;88.90
41256;DHT22;26989;45.524;10.938;2023-04-16T12:24:12;17.90;87.80
41256;DHT22;26989;45.524;10.938;2023-04-16T12:26:46;18.00;88.10
41256;DHT22;26989;45.524;10.938;2023-04-16T12:29:21;17.90;87.80
41256;DHT22;26989;45.524;10.938;2023-04-16T12:31:50;17.80;88.40
41256;DHT22;26989;45.524;10.938;2023-04-16T12:34:18;17.80;88.80
41256;DHT22;26989;45.524;10.938;2023-04-16T12:36:46;17.70;86.70
41256;DHT22;26989;45.524;10.938;2023-04-16T12:39:14;17.50;88.50
41256;DHT22;26989;45.524;10.938;2023-04-16T12:41:44;17.40;87.90
41256;DHT22;26989;45.524;10.938;2023-04-16T12:44:15;17.40;88.10
41256;DHT22;26989;45.524;10.938;2023-04-16T12:46:44;17.60;88.70
41256;DHT22;26989;45.524;10.938;2023-04-16T12:49:12;18.00;87.90
41256;DHT22;26989;45.524;10.938;2023-04-16T12:51:38;18.10;86.70
41256;DHT22;26989;45.524;10.938;2023-04-16T12:54:06;18.50;87.10
41256;DHT22;26989;45.524;10.938;2023-04-16T12:56:35;18.70;86.10
41256;DHT22;26989;45.524;10.938;2023-04-16T12:59:02;19.10;86.10
41256;DHT22;26989;45.524;10.938;2023-04-16T13:01:29;19.20;85.60
41256;DHT22;26989;45.524;10.938;2023-04-16T13:03:56;19.30;85.90
41256;DHT22;26989;45.524;10.938;2023-04-16T13:06:25;19.50;85.70
41256;DHT22;26989;45.524;10.938;2023-04-16T13:08:52;19.50;84.50
41256;DHT22;26989;45.524;10.938;2023-04-16T13:11:19;19.60;84.00
41256;DHT22;26989;45.524;10.938;2023-04-16T13:13:46;18.70;85.00
41256;DHT22;26989;45.524;10.938;2023-04-16T13:16:13;19.30;85.70
41256;DHT22;26989;45.524;10.938;2023-04-16T13:18:40;19.40;85.60
41256;DHT22;26989;45.524;10.938;2023-04-16T13:21:07;19.20;86.50
41256;DHT22;26989;45.524;10.938;2023-04-16T13:23:34;19.40;86.40
41256;DHT22;26989;45.524;10.938;2023-04-16T13:26:01;19.60;86.20
41256;DHT22;26989;45.524;10.938;2023-04-16T13:28:28;19.40;84.90
41256;DHT22;26989;45.524;10.938;2023-04-16T13:30:54;19.40;86.50
41256;DHT22;26989;45.524;10.938;2023-04-16T13:33:21;19.40;86.50
41256;DHT22;26989;45.524;10.938;2023-04-16T13:35:49;19.00;86.60
41256;DHT22;26989;45.524;10.938;2023-04-16T13:38:16;18.80;86.00
41256;DHT22;26989;45.524;10.938;2023-04-16T13:40:43;19.20;86.10
41256;DHT22;26989;45.524;10.938;2023-04-16T13:43:10;19.60;84.80
41256;DHT22;26989;45.524;10.938;2023-04-16T13:45:37;19.60;84.50
41256;DHT22;26989;45.524;10.938;2023-04-16T13:48:04;19.50;84.00
41256;DHT22;26989;45.524;10.938;2023-04-16T13:50:31;19.40;84.60
41256;DHT22;26989;45.524;10.938;2023-04-16T13:52:58;19.30;85.40
41256;DHT22;26989;45.524;10.938;2023-04-16T13:55:24;18.30;86.00
41256;DHT22;26989;45.524;10.938;2023-04-16T13:57:51;18.80;86.20
41256;DHT22;26989;45.524;10.938;2023-04-16T14:00:19;19.00;86.90
41256;DHT22;26989;45.524;10.938;2023-04-16T14:02:45;19.30;88.20
41256;DHT22;26989;45.524;10.938;2023-04-16T14:05:14;19.40;87.30
41256;DHT22;26989;45.524;10.938;2023-04-16T14:07:41;19.40;87.00
41256;DHT22;26989;45.524;10.938;2023-04-16T14:10:08;19.70;87.40
41256;DHT22;26989;45.524;10.938;2023-04-16T14:12:36;20.10;85.60
41256;DHT22;26989;45.524;10.938;2023-04-16T14:15:05;20.00;86.00
41256;DHT22;26989;45.524;10.938;2023-04-16T14:17:32;19.60;85.40
41256;DHT22;26989;45.524;10.938;2023-04-16T14:19:59;19.80;86.60
41256;DHT22;26989;45.524;10.938;2023-04-16T14:22:26;20.10;86.10
41256;DHT22;26989;45.524;10.938;2023-04-16T14:24:52;20.10;84.50
41256;DHT22;26989;45.524;10.938;2023-04-16T14:27:19;20.10;85.40
41256;DHT22;26989;45.524;10.938;2023-04-16T14:29:46;19.90;84.80
41256;DHT22;26989;45.524;10.938;2023-04-16T14:32:13;20.00;86.20
41256;DHT22;26989;45.524;10.938;2023-04-16T14:34:40;20.20;86.20
41256;DHT22;26989;45.524;10.938;2023-04-16T14:37:07;20.50;85.70
41256;DHT22;26989;45.524;10.938;2023-04-16T14:39:34;20.60;86.40
41256;DHT22;26989;45.524;10.938;2023-04-16T14:42:02;20.40;85.00
41256;DHT22;26989;45.524;10.938;2023-04-16T14:44:29;20.60;85.30
41256;DHT22;26989;45.524;10.938;2023-04-16T14:46:55;20.70;85.70
41256;DHT22;26989;45.524;10.938;2023-04-16T14:49:24;20.70;85.10
41256;DHT22;26989;45.524;10.938;2023-04-16T14:51:51;20.40;85.70
41256;DHT22;26989;45.524;10.938;2023-04-16T14:54:18;20.10;86.90
41256;DHT22;26989;45.524;10.938;2023-04-16T14:56:45;20.10;87.00
41256;DHT22;26989;45.524;10.938;2023-04-16T14:59:13;20.20;87.00
41256;DHT22;26989;45.524;10.938;2023-04-16T15:01:39;20.20;86.00
41256;DHT22;26989;45.524;10.938;2023-04-16T15:04:07;20.00;85.10
41256;DHT22;26989;45.524;10.938;2023-04-16T15:06:34;19.70;85.40
41256;DHT22;26989;45.524;10.938;2023-04-16T15:09:02;19.40;85.80
41256;DHT22;26989;45.524;10.938;2023-04-16T15:11:29;19.20;86.50
41256;DHT22;26989;45.524;10.938;2023-04-16T15:13:56;19.00;87.10
41256;DHT22;26989;45.524;10.938;2023-04-16T15:16:23;18.60;87.50
41256;DHT22;26989;45.524;10.938;2023-04-16T15:18:50;18.20;87.70
41256;DHT22;26989;45.524;10.938;2023-04-16T15:21:17;17.70;88.90
41256;DHT22;26989;45.524;10.938;2023-04-16T15:23:44;17.70;89.10
41256;DHT22;26989;45.524;10.938;2023-04-16T15:26:11;17.80;89.40
41256;DHT22;26989;45.524;10.938;2023-04-16T15:28:38;17.90;89.40
41256;DHT22;26989;45.524;10.938;2023-04-16T15:31:05;18.00;88.60
41256;DHT22;26989;45.524;10.938;2023-04-16T15:33:32;18.10;88.60
41256;DHT22;26989;45.524;10.938;2023-04-16T15:35:58;18.00;88.50
41256;DHT22;26989;45.524;10.938;2023-04-16T15:38:25;17.80;89.10
41256;DHT22;26989;45.524;10.938;2023-04-16T15:40:55;17.60;89.30